Time;durP1;ratioP1;P1;durP2;ratioP2;P2;SDS_P1;SDS_P2;PMS_P1;PMS_P2;Temp;Humidity;BMP_temperature;BMP_pressure;BME280_temperature;BME280_humidity;BME280_pressure;Samples;Min_cycle;Max_cycle;Signal;HPM_P1;HPM_P2
2022/10/16 00:00:43;;;;;;;11.77;7.38;;;14.60;99.90;;;;;;5048025;28;20480;-64
2022/10/16 00:03:09;;;;;;;9.32;4.68;;;14.60;99.90;;;;;;5051006;28;20029;-64
2022/10/16 00:05:42;;;;;;;12.77;4.65;;;14.50;99.90;;;;;;5047837;28;20029;-63
2022/10/16 00:08:10;;;;;;;6.40;3.83;;;14.50;99.90;;;;;;5048922;28;20048;-63
2022/10/16 00:10:36;;;;;;;8.23;3.92;;;14.50;99.90;;;;;;5048046;28;20151;-63
2022/10/16 00:13:02;;;;;;;5.93;3.50;;;14.50;99.90;;;;;;5048888;28;20025;-64
2022/10/16 00:15:28;;;;;;;6.10;3.47;;;14.40;99.90;;;;;;5048477;28;20039;-63
2022/10/16 00:17:53;;;;;;;5.55;3.45;;;14.40;99.90;;;;;;5050198;28;20025;-65
2022/10/16 00:20:19;;;;;;;10.23;3.17;;;14.40;99.90;;;;;;5046416;28;20393;-64
2022/10/16 00:22:45;;;;;;;11.35;4.15;;;14.40;99.90;;;;;;5049243;28;20509;-63
2022/10/16 00:25:10;;;;;;;5.30;3.15;;;14.40;99.90;;;;;;5048923;28;20116;-64
2022/10/16 00:27:36;;;;;;;5.07;3.03;;;14.40;99.90;;;;;;5047076;28;20462;-64
2022/10/16 00:30:03;;;;;;;4.60;2.88;;;14.40;99.90;;;;;;5048572;28;20450;-61
2022/10/16 00:32:28;;;;;;;4.05;2.75;;;14.40;99.90;;;;;;5047521;28;20028;-64
2022/10/16 00:34:54;;;;;;;10.18;2.83;;;14.40;99.90;;;;;;5049512;28;20037;-64
2022/10/16 00:37:20;;;;;;;117.53;7.50;;;14.50;99.90;;;;;;5046689;28;20049;-64
2022/10/16 00:39:46;;;;;;;392.85;10.30;;;14.50;99.90;;;;;;5048619;28;20053;-64
2022/10/16 00:42:16;;;;;;;50.75;6.88;;;14.40;99.90;;;;;;5049236;28;20091;-67
2022/10/16 00:44:49;;;;;;;6.40;4.45;;;14.30;99.90;;;;;;5047631;28;20048;-64
2022/10/16 00:47:44;;;;;;;8.30;3.65;;;14.20;99.90;;;;;;5046778;28;20064;-67
2022/10/16 00:50:32;;;;;;;8.38;4.70;;;14.20;99.90;;;;;;5046233;28;20033;-62
2022/10/16 00:53:00;;;;;;;7.93;4.43;;;14.20;99.90;;;;;;5048453;28;20120;-64
2022/10/16 00:55:28;;;;;;;7.43;4.55;;;14.20;99.90;;;;;;5048292;28;20071;-64
2022/10/16 00:57:54;;;;;;;8.85;4.32;;;14.20;99.90;;;;;;5046304;28;20501;-62
2022/10/16 01:00:25;;;;;;;16.95;4.78;;;14.30;99.90;;;;;;5046059;28;20036;-65
2022/10/16 01:02:57;;;;;;;11.45;5.97;;;14.20;99.90;;;;;;5048479;28;20473;-64
2022/10/16 01:05:30;;;;;;;17.77;7.05;;;14.20;99.90;;;;;;5046179;28;20041;-64
2022/10/16 01:08:33;;;;;;;13.88;7.78;;;14.20;99.90;;;;;;5047897;28;20072;-62
2022/10/16 01:11:09;;;;;;;10.88;6.15;;;14.20;99.90;;;;;;5044555;28;20043;-64
2022/10/16 01:13:40;;;;;;;15.85;7.00;;;14.10;99.90;;;;;;5047013;28;20179;-62
2022/10/16 01:16:20;;;;;;;17.23;6.82;;;14.10;99.90;;;;;;5048139;28;20032;-64
2022/10/16 01:18:59;;;;;;;14.45;8.73;;;14.00;99.90;;;;;;5044090;28;20439;-67
2022/10/16 01:21:29;;;;;;;7.88;4.65;;;14.00;99.90;;;;;;5045919;28;20546;-65
2022/10/16 01:24:03;;;;;;;8.88;4.38;;;14.00;99.90;;;;;;5048505;28;20489;-64
2022/10/16 01:27:10;;;;;;;4.97;3.17;;;14.00;99.90;;;;;;5047508;28;20575;-64
2022/10/16 01:29:50;;;;;;;4.28;2.90;;;14.00;99.90;;;;;;4995545;28;20041;-63
2022/10/16 01:32:36;;;;;;;4.88;2.40;;;14.10;99.90;;;;;;5043430;28;20036;-68
2022/10/16 01:35:06;;;;;;;4.65;2.72;;;14.10;99.90;;;;;;5048051;28;20033;-63
2022/10/16 01:37:37;;;;;;;5.20;2.78;;;14.10;99.90;;;;;;5046613;28;20506;-64
2022/10/16 01:40:08;;;;;;;6.85;3.40;;;14.10;99.90;;;;;;5046987;28;20033;-63
2022/10/16 01:42:48;;;;;;;7.00;2.80;;;14.00;99.90;;;;;;5047034;28;20064;-65
2022/10/16 01:45:17;;;;;;;6.67;2.70;;;14.00;99.90;;;;;;5047701;28;20832;-63
2022/10/16 01:47:44;;;;;;;3.97;2.67;;;13.90;99.90;;;;;;5046068;28;20044;-65
2022/10/16 01:50:11;;;;;;;3.65;2.53;;;13.90;99.90;;;;;;5047710;28;20037;-63
2022/10/16 01:52:41;;;;;;;5.75;2.50;;;13.90;99.90;;;;;;5047526;28;20029;-63
2022/10/16 01:55:10;;;;;;;20.48;7.00;;;13.90;99.90;;;;;;5045677;28;20571;-65
2022/10/16 01:57:41;;;;;;;63.72;6.45;;;13.80;99.90;;;;;;5046452;28;20574;-64
2022/10/16 02:00:10;;;;;;;327.58;9.65;;;13.70;99.90;;;;;;5047817;28;20041;-65
2022/10/16 02:02:37;;;;;;;16.90;4.10;;;13.60;99.90;;;;;;5047358;28;20033;-65
2022/10/16 02:05:40;;;;;;;8.50;3.67;;;13.50;99.90;;;;;;5046942;28;20031;-63
2022/10/16 02:08:06;;;;;;;12.27;4.63;;;13.50;99.90;;;;;;5001153;28;20102;-64
2022/10/16 02:10:35;;;;;;;9.77;4.50;;;13.40;99.90;;;;;;5045181;28;20050;-63
2022/10/16 02:13:06;;;;;;;8.05;3.97;;;13.40;99.90;;;;;;5048587;28;20426;-65
2022/10/16 02:15:32;;;;;;;9.30;4.22;;;13.40;99.90;;;;;;5045105;28;20091;-61
2022/10/16 02:17:58;;;;;;;5.15;3.50;;;13.50;99.90;;;;;;5048376;28;20033;-63
2022/10/16 02:20:27;;;;;;;7.50;3.88;;;13.50;99.90;;;;;;5044894;28;20033;-66
2022/10/16 02:22:55;;;;;;;5.57;3.50;;;13.50;99.90;;;;;;5048742;28;20723;-64
2022/10/16 02:25:31;;;;;;;7.57;3.78;;;13.50;99.90;;;;;;5042583;28;20283;-66
2022/10/16 02:28:12;;;;;;;9.32;4.35;;;13.50;99.90;;;;;;5047963;28;20043;-64
2022/10/16 02:30:48;;;;;;;10.32;4.20;;;13.50;99.90;;;;;;5043778;28;20493;-63
2022/10/16 02:33:16;;;;;;;12.48;4.40;;;13.50;99.90;;;;;;5048700;28;20389;-65
2022/10/16 02:35:44;;;;;;;5.07;3.35;;;13.50;99.90;;;;;;5044373;28;20233;-64
2022/10/16 02:38:12;;;;;;;9.13;3.70;;;13.40;99.90;;;;;;5047317;28;20112;-64
2022/10/16 02:40:38;;;;;;;6.72;3.10;;;13.40;99.90;;;;;;5046100;28;20454;-64
2022/10/16 02:43:05;;;;;;;15.57;3.85;;;13.40;99.90;;;;;;5047327;28;20052;-65
2022/10/16 02:45:31;;;;;;;6.20;3.90;;;13.40;99.90;;;;;;5046019;28;20033;-65
2022/10/16 02:47:56;;;;;;;6.75;3.65;;;13.40;99.90;;;;;;5046812;28;20112;-64
2022/10/16 02:50:22;;;;;;;13.52;4.03;;;13.40;99.90;;;;;;5045295;28;20159;-68
2022/10/16 02:52:48;;;;;;;6.55;3.38;;;13.40;99.90;;;;;;5045594;28;20045;-65
2022/10/16 02:55:14;;;;;;;7.82;2.67;;;13.40;99.90;;;;;;5048717;28;20036;-66
2022/10/16 02:57:40;;;;;;;4.75;2.88;;;13.40;99.90;;;;;;5049938;28;20267;-66
2022/10/16 03:00:07;;;;;;;4.05;2.75;;;13.40;99.90;;;;;;5050428;28;20073;-66
2022/10/16 03:02:33;;;;;;;3.92;3.05;;;13.40;99.90;;;;;;5042937;28;20045;-66
2022/10/16 03:04:59;;;;;;;4.53;3.03;;;13.40;99.90;;;;;;5050874;28;20619;-66
2022/10/16 03:07:24;;;;;;;5.95;3.40;;;13.40;99.90;;;;;;5050651;28;20040;-67
2022/10/16 03:09:50;;;;;;;3.45;2.65;;;13.40;99.90;;;;;;5049579;28;20037;-62
2022/10/16 03:12:16;;;;;;;6.88;2.60;;;13.40;99.90;;;;;;5052007;28;20118;-63
2022/10/16 03:14:41;;;;;;;5.25;3.28;;;13.40;99.90;;;;;;5045690;28;20588;-67
2022/10/16 03:17:07;;;;;;;37.90;4.95;;;13.30;99.90;;;;;;5050877;28;20112;-63
2022/10/16 03:19:32;;;;;;;11.70;4.40;;;13.20;99.90;;;;;;5049301;28;20037;-63
2022/10/16 03:21:58;;;;;;;11.38;4.97;;;13.10;99.90;;;;;;5049672;28;20116;-65
2022/10/16 03:24:23;;;;;;;7.20;3.90;;;13.10;99.90;;;;;;5050218;28;20033;-67
2022/10/16 03:26:49;;;;;;;5.45;3.10;;;13.10;99.90;;;;;;5049148;28;20534;-65
2022/10/16 03:29:15;;;;;;;4.90;2.85;;;13.10;99.90;;;;;;5050744;28;20497;-64
2022/10/16 03:31:41;;;;;;;3.95;2.35;;;13.10;99.90;;;;;;5048521;28;20055;-64
2022/10/16 03:34:07;;;;;;;5.22;3.22;;;13.20;99.90;;;;;;5050589;28;20036;-64
2022/10/16 03:36:32;;;;;;;9.02;3.72;;;13.30;99.90;;;;;;5049093;28;20433;-64
2022/10/16 03:38:58;;;;;;;3.30;1.95;;;13.30;99.90;;;;;;5049756;28;20030;-63
2022/10/16 03:41:23;;;;;;;7.50;3.58;;;13.40;99.90;;;;;;5049199;28;20029;-70
2022/10/16 03:43:49;;;;;;;4.32;2.90;;;13.50;99.90;;;;;;5041962;28;20057;-65
2022/10/16 03:46:15;;;;;;;5.13;3.70;;;13.40;99.90;;;;;;5048850;28;20059;-65
2022/10/16 03:48:40;;;;;;;6.13;3.35;;;13.30;99.90;;;;;;5048843;28;20029;-65
2022/10/16 03:51:06;;;;;;;10.57;3.50;;;13.20;99.90;;;;;;5051059;28;20025;-64
2022/10/16 03:53:32;;;;;;;4.10;2.80;;;13.20;99.90;;;;;;5049090;28;20053;-67
2022/10/16 03:55:58;;;;;;;4.95;3.00;;;13.20;99.90;;;;;;5049859;28;20037;-66
2022/10/16 03:58:24;;;;;;;5.40;3.17;;;13.30;99.90;;;;;;5047188;28;20052;-68
2022/10/16 04:00:49;;;;;;;7.57;3.13;;;13.30;99.90;;;;;;5049362;28;20466;-66
2022/10/16 04:03:15;;;;;;;5.88;2.70;;;13.30;99.90;;;;;;5047368;28;20037;-63
2022/10/16 04:05:41;;;;;;;4.10;2.50;;;13.30;99.90;;;;;;5048214;28;20029;-64
2022/10/16 04:08:07;;;;;;;4.05;2.80;;;13.30;99.90;;;;;;5048289;28;20059;-64
2022/10/16 04:10:33;;;;;;;6.88;2.88;;;13.30;99.90;;;;;;5048095;28;20056;-64
2022/10/16 04:12:58;;;;;;;7.30;2.83;;;13.30;99.90;;;;;;5047372;28;20069;-63
2022/10/16 04:15:25;;;;;;;6.60;2.95;;;13.30;99.90;;;;;;5048639;28;20037;-63
2022/10/16 04:17:51;;;;;;;3.88;2.67;;;13.20;99.90;;;;;;5048839;28;20033;-63
2022/10/16 04:20:17;;;;;;;5.50;2.70;;;13.30;99.90;;;;;;5049589;28;20021;-64
2022/10/16 04:22:43;;;;;;;3.70;2.63;;;13.30;99.90;;;;;;5046940;28;20055;-63
2022/10/16 04:25:11;;;;;;;4.03;2.85;;;13.30;99.90;;;;;;5050497;28;20029;-64
2022/10/16 04:27:36;;;;;;;4.82;2.60;;;13.20;99.90;;;;;;5046924;28;20124;-63
2022/10/16 04:30:02;;;;;;;3.08;2.35;;;13.20;99.90;;;;;;5050468;28;20108;-64
2022/10/16 04:32:28;;;;;;;4.68;2.60;;;13.20;99.90;;;;;;5045346;28;20454;-68
2022/10/16 04:34:54;;;;;;;4.00;2.53;;;13.20;99.90;;;;;;5045677;28;20107;-64
2022/10/16 04:37:24;;;;;;;4.97;2.70;;;13.20;99.90;;;;;;5049197;28;20028;-66
2022/10/16 04:39:49;;;;;;;3.22;2.40;;;13.20;99.90;;;;;;5046375;28;20025;-63
2022/10/16 04:42:15;;;;;;;5.50;3.13;;;13.10;99.90;;;;;;5049981;28;20444;-64
2022/10/16 04:44:40;;;;;;;8.20;2.90;;;13.00;99.90;;;;;;5046263;28;20132;-62
2022/10/16 04:47:06;;;;;;;4.82;2.50;;;13.10;99.90;;;;;;5047077;28;20037;-63
2022/10/16 04:49:32;;;;;;;3.42;2.47;;;13.00;99.90;;;;;;5048043;28;20108;-63
2022/10/16 04:51:57;;;;;;;4.15;2.35;;;13.00;99.90;;;;;;5048388;28;20032;-65
2022/10/16 04:54:23;;;;;;;6.50;3.25;;;13.00;99.90;;;;;;5048204;28;20032;-63
2022/10/16 04:56:50;;;;;;;5.30;2.97;;;13.00;99.90;;;;;;5047164;28;20501;-64
2022/10/16 04:59:17;;;;;;;5.13;3.30;;;13.10;99.90;;;;;;5048136;28;20032;-63
2022/10/16 05:01:43;;;;;;;11.15;3.50;;;13.10;99.90;;;;;;5047467;28;20098;-63
2022/10/16 05:04:09;;;;;;;6.05;3.55;;;13.00;99.90;;;;;;5048861;28;20037;-66
2022/10/16 05:06:34;;;;;;;8.85;3.42;;;13.00;99.90;;;;;;5047148;28;20525;-66
2022/10/16 05:09:00;;;;;;;12.65;4.45;;;13.00;99.90;;;;;;5045751;28;20025;-64
2022/10/16 05:11:26;;;;;;;8.10;4.10;;;13.00;99.90;;;;;;5048620;28;20036;-62
2022/10/16 05:13:51;;;;;;;10.27;3.75;;;13.00;99.90;;;;;;5048002;28;20041;-64
2022/10/16 05:16:17;;;;;;;6.18;4.10;;;12.90;99.90;;;;;;5047769;28;20437;-63
2022/10/16 05:18:43;;;;;;;9.07;4.05;;;12.90;99.90;;;;;;5045687;28;20029;-63
2022/10/16 05:21:08;;;;;;;9.55;3.97;;;13.00;99.90;;;;;;5044200;28;20044;-64
2022/10/16 05:23:34;;;;;;;7.85;3.70;;;13.00;99.90;;;;;;5047844;28;20504;-63
2022/10/16 05:26:00;;;;;;;7.72;3.88;;;13.00;99.90;;;;;;5048263;28;20033;-64
2022/10/16 05:28:27;;;;;;;6.10;3.97;;;13.00;99.90;;;;;;5048379;28;20123;-65
2022/10/16 05:30:53;;;;;;;6.85;3.60;;;13.10;99.90;;;;;;5045923;28;20029;-65
2022/10/16 05:33:24;;;;;;;4.28;2.97;;;13.10;99.90;;;;;;5048240;28;20036;-65
2022/10/16 05:35:50;;;;;;;6.57;3.15;;;13.00;99.90;;;;;;5045998;28;20841;-63
2022/10/16 05:38:16;;;;;;;141.10;6.05;;;13.00;99.90;;;;;;5047146;28;20418;-65
2022/10/16 05:40:42;;;;;;;48.88;5.97;;;13.00;99.90;;;;;;5046307;28;20032;-64
2022/10/16 05:43:08;;;;;;;7.93;3.50;;;13.00;99.90;;;;;;5047464;28;20280;-66
2022/10/16 05:45:34;;;;;;;9.00;3.40;;;12.90;99.90;;;;;;5042438;28;20075;-67
2022/10/16 05:48:00;;;;;;;13.85;3.90;;;12.90;99.90;;;;;;5045096;28;20048;-63
2022/10/16 05:50:26;;;;;;;6.68;3.65;;;12.90;99.90;;;;;;5044902;28;20044;-62
2022/10/16 05:52:52;;;;;;;9.70;3.60;;;12.90;99.90;;;;;;5046602;28;20028;-63
2022/10/16 05:55:17;;;;;;;8.82;4.07;;;12.90;99.90;;;;;;5043716;28;20037;-63
2022/10/16 05:57:43;;;;;;;8.55;4.13;;;12.90;99.90;;;;;;5030193;28;20037;-64
2022/10/16 06:00:09;;;;;;;6.50;4.32;;;12.90;99.90;;;;;;5038466;28;20033;-65
2022/10/16 06:02:35;;;;;;;12.80;4.50;;;12.90;99.90;;;;;;5045330;28;20555;-68
2022/10/16 06:05:01;;;;;;;8.30;3.92;;;12.90;99.90;;;;;;5047108;28;20112;-62
2022/10/16 06:07:26;;;;;;;9.15;4.07;;;12.90;99.90;;;;;;5043465;28;20095;-62
2022/10/16 06:09:53;;;;;;;9.48;3.78;;;13.00;99.90;;;;;;5047772;28;20032;-64
2022/10/16 06:12:19;;;;;;;10.48;4.28;;;13.00;99.90;;;;;;5047565;28;20044;-64
2022/10/16 06:14:46;;;;;;;11.15;3.58;;;13.00;99.90;;;;;;5047171;28;20547;-65
2022/10/16 06:17:13;;;;;;;4.93;3.63;;;13.00;99.90;;;;;;5046554;28;20425;-62
2022/10/16 06:19:39;;;;;;;6.20;3.20;;;13.00;99.90;;;;;;5046576;28;20037;-63
2022/10/16 06:22:04;;;;;;;4.63;3.00;;;13.10;99.90;;;;;;5046915;28;20033;-63
2022/10/16 06:24:30;;;;;;;8.68;3.35;;;13.10;99.90;;;;;;5053057;28;20033;-63
2022/10/16 06:26:56;;;;;;;6.47;2.90;;;13.10;99.90;;;;;;5047768;28;20384;-63
2022/10/16 06:29:21;;;;;;;4.35;3.33;;;13.00;99.90;;;;;;5053156;28;20036;-62
2022/10/16 06:31:47;;;;;;;9.73;4.18;;;13.00;99.90;;;;;;5050496;28;20657;-61
2022/10/16 06:34:13;;;;;;;8.55;4.28;;;13.00;99.90;;;;;;5054059;28;20069;-63
2022/10/16 06:36:39;;;;;;;13.70;3.80;;;12.90;99.90;;;;;;5052882;28;20326;-63
2022/10/16 06:39:07;;;;;;;6.88;3.53;;;12.90;99.90;;;;;;5054653;28;20075;-63
2022/10/16 06:41:33;;;;;;;8.25;3.47;;;13.00;99.90;;;;;;5067756;28;20028;-65
2022/10/16 06:43:59;;;;;;;6.82;3.72;;;13.10;99.90;;;;;;5052597;28;20063;-65
2022/10/16 06:46:26;;;;;;;9.90;4.78;;;13.10;99.90;;;;;;5053693;28;20400;-63
2022/10/16 06:48:52;;;;;;;6.75;3.95;;;13.20;99.90;;;;;;5052222;28;20104;-63
2022/10/16 06:51:20;;;;;;;7.82;3.78;;;13.30;99.90;;;;;;5052677;28;20065;-64
2022/10/16 06:53:49;;;;;;;7.30;3.67;;;13.40;99.90;;;;;;5053955;28;20029;-63
2022/10/16 06:56:23;;;;;;;6.43;3.38;;;13.40;99.90;;;;;;5053922;28;20040;-65
2022/10/16 06:58:50;;;;;;;6.63;3.17;;;13.50;99.90;;;;;;5053196;28;20037;-62
2022/10/16 07:01:17;;;;;;;9.10;3.17;;;13.60;99.90;;;;;;5052357;28;20378;-63
2022/10/16 07:03:45;;;;;;;8.95;4.00;;;13.70;99.90;;;;;;5052938;28;20461;-64
2022/10/16 07:06:13;;;;;;;6.22;3.83;;;13.80;99.90;;;;;;5053499;28;20029;-65
2022/10/16 07:08:40;;;;;;;12.85;4.20;;;13.90;99.90;;;;;;5053581;28;20059;-67
2022/10/16 07:11:12;;;;;;;14.65;4.32;;;13.90;99.90;;;;;;5056275;28;20044;-63
2022/10/16 07:13:39;;;;;;;8.10;4.00;;;14.00;99.90;;;;;;5055456;28;20029;-67
2022/10/16 07:16:13;;;;;;;7.38;3.78;;;14.00;99.90;;;;;;5058989;28;20021;-65
2022/10/16 07:18:40;;;;;;;8.20;3.88;;;14.10;99.90;;;;;;5051579;28;20033;-69
2022/10/16 07:21:07;;;;;;;12.02;3.60;;;14.30;99.90;;;;;;5052956;28;20119;-64
2022/10/16 07:23:33;;;;;;;8.57;3.97;;;14.40;99.90;;;;;;5053151;28;20024;-63
2022/10/16 07:25:59;;;;;;;5.95;3.75;;;14.60;99.90;;;;;;5052298;28;20035;-63
2022/10/16 07:28:24;;;;;;;9.35;3.35;;;14.60;99.90;;;;;;5052135;28;20040;-65
2022/10/16 07:30:50;;;;;;;6.05;3.60;;;14.60;99.90;;;;;;5052023;28;20037;-63
2022/10/16 07:33:16;;;;;;;9.43;4.05;;;14.70;99.90;;;;;;5051723;28;20469;-62
2022/10/16 07:35:52;;;;;;;5.47;3.25;;;14.80;99.90;;;;;;5051588;28;20029;-64
2022/10/16 07:38:18;;;;;;;9.85;3.58;;;14.90;99.90;;;;;;5051855;28;20040;-64
2022/10/16 07:40:44;;;;;;;9.98;3.70;;;15.10;99.90;;;;;;5047518;28;20740;-63
2022/10/16 07:43:10;;;;;;;6.18;3.83;;;15.30;99.90;;;;;;5051092;28;20183;-64
2022/10/16 07:45:37;;;;;;;8.05;4.80;;;15.40;99.90;;;;;;5047684;28;20466;-63
2022/10/16 07:48:03;;;;;;;18.25;4.85;;;15.50;99.90;;;;;;5044582;28;20040;-62
2022/10/16 07:50:28;;;;;;;9.02;5.15;;;15.50;99.90;;;;;;5042366;28;20030;-63
2022/10/16 07:52:54;;;;;;;13.20;5.90;;;15.60;99.90;;;;;;5038390;28;20533;-65
2022/10/16 07:55:19;;;;;;;13.32;4.60;;;15.70;99.90;;;;;;5051035;28;20055;-62
2022/10/16 07:57:45;;;;;;;11.73;4.43;;;15.70;99.90;;;;;;5045550;28;20098;-62
2022/10/16 08:00:14;;;;;;;22.45;4.95;;;15.80;99.90;;;;;;5047892;28;20110;-63
2022/10/16 08:02:40;;;;;;;9.82;4.90;;;15.80;99.90;;;;;;5048409;28;20126;-70
2022/10/16 08:05:07;;;;;;;8.73;5.32;;;15.90;99.90;;;;;;5045826;28;20037;-65
2022/10/16 08:07:32;;;;;;;9.52;5.50;;;15.90;99.90;;;;;;5045308;28;20056;-62
2022/10/16 08:09:58;;;;;;;17.13;7.13;;;15.90;99.90;;;;;;5046764;28;20033;-63
2022/10/16 08:12:27;;;;;;;12.07;6.18;;;15.90;99.90;;;;;;5049819;28;20573;-64
2022/10/16 08:14:52;;;;;;;11.75;6.45;;;15.90;99.90;;;;;;5043091;28;20029;-65
2022/10/16 08:17:18;;;;;;;15.75;6.93;;;15.90;99.90;;;;;;5045688;28;20672;-63
2022/10/16 08:19:47;;;;;;;14.35;6.57;;;15.90;99.90;;;;;;5047681;28;20067;-67
2022/10/16 08:22:14;;;;;;;9.82;6.32;;;15.90;99.90;;;;;;5050635;28;20059;-63
2022/10/16 08:24:40;;;;;;;13.85;6.28;;;15.90;99.90;;;;;;5050302;28;20508;-67
2022/10/16 08:27:06;;;;;;;10.13;6.10;;;15.90;99.90;;;;;;5049856;28;20044;-65
2022/10/16 08:29:32;;;;;;;13.20;6.30;;;15.90;99.90;;;;;;5050495;28;20021;-63
2022/10/16 08:31:58;;;;;;;10.30;5.50;;;16.00;99.90;;;;;;5049003;28;20064;-64
2022/10/16 08:34:24;;;;;;;13.98;5.65;;;16.00;99.90;;;;;;5050244;28;20387;-66
2022/10/16 08:36:49;;;;;;;8.07;5.22;;;16.10;99.90;;;;;;5049595;28;20037;-62
2022/10/16 08:39:16;;;;;;;11.10;6.53;;;16.20;99.90;;;;;;5050155;28;20444;-64
2022/10/16 08:42:19;;;;;;;11.57;5.68;;;16.30;99.90;;;;;;5048647;28;20079;-70
2022/10/16 08:45:12;;;;;;;23.60;11.43;;;16.30;99.90;;;;;;5047800;28;20045;-68
2022/10/16 08:47:49;;;;;;;30.55;14.82;;;16.40;99.90;;;;;;5050008;28;20072;-65
2022/10/16 08:50:27;;;;;;;20.65;8.85;;;16.40;99.90;;;;;;5050214;28;20029;-63
2022/10/16 08:52:53;;;;;;;17.05;6.30;;;16.50;99.90;;;;;;5048248;28;20105;-65
2022/10/16 08:55:43;;;;;;;6.78;3.85;;;16.60;99.90;;;;;;5050074;28;20033;-64
2022/10/16 08:58:16;;;;;;;10.50;4.33;;;16.70;99.90;;;;;;5049856;28;20041;-66
2022/10/16 09:00:44;;;;;;;8.77;3.90;;;16.80;99.90;;;;;;5047817;28;20040;-68
2022/10/16 09:03:19;;;;;;;8.65;3.90;;;17.00;99.90;;;;;;5049427;28;20104;-64
2022/10/16 09:06:06;;;;;;;7.55;4.15;;;17.10;99.90;;;;;;5049685;28;20025;-69
2022/10/16 09:08:46;;;;;;;9.95;4.22;;;17.20;99.90;;;;;;5048308;28;20525;-62
2022/10/16 09:11:41;;;;;;;8.90;3.85;;;17.40;99.90;;;;;;5049278;28;20029;-62
2022/10/16 09:14:17;;;;;;;6.60;3.50;;;17.40;99.90;;;;;;4992631;28;20049;-63
2022/10/16 09:17:14;;;;;;;6.93;3.90;;;17.60;99.90;;;;;;5049424;28;20029;-67
2022/10/16 09:19:51;;;;;;;9.45;3.35;;;17.70;99.90;;;;;;5048274;28;20025;-64
2022/10/16 09:22:27;;;;;;;7.13;3.65;;;17.80;99.90;;;;;;5048720;28;20016;-62
2022/10/16 09:24:58;;;;;;;5.95;2.90;;;17.90;99.90;;;;;;5048281;28;20028;-65
2022/10/16 09:27:24;;;;;;;3.90;2.55;;;18.10;99.90;;;;;;5049165;28;20033;-64
2022/10/16 09:29:50;;;;;;;4.47;2.28;;;18.20;99.90;;;;;;5047205;28;20029;-62
2022/10/16 09:32:22;;;;;;;9.07;2.42;;;18.30;99.90;;;;;;5049367;28;20373;-62
2022/10/16 09:34:52;;;;;;;5.28;2.20;;;18.40;99.90;;;;;;5048730;28;20120;-70
2022/10/16 09:37:19;;;;;;;6.22;2.65;;;18.40;99.90;;;;;;5048721;28;20060;-64
2022/10/16 09:39:53;;;;;;;11.85;3.25;;;18.40;99.90;;;;;;5049164;28;20033;-68
2022/10/16 09:42:32;;;;;;;7.97;4.22;;;18.40;99.90;;;;;;5048993;28;20037;-65
2022/10/16 09:44:58;;;;;;;5.18;3.35;;;18.40;99.90;;;;;;5048510;28;20394;-66
2022/10/16 09:47:27;;;;;;;9.25;3.45;;;18.30;99.90;;;;;;5048978;28;20033;-65
2022/10/16 09:50:21;;;;;;;6.60;3.15;;;18.30;99.90;;;;;;5048227;28;20500;-65
2022/10/16 09:52:47;;;;;;;7.45;3.45;;;18.40;99.90;;;;;;5045871;28;20086;-69
2022/10/16 09:55:16;;;;;;;10.07;3.97;;;18.40;99.90;;;;;;5048224;28;20029;-64
2022/10/16 09:57:55;;;;;;;13.55;6.28;;;18.50;99.90;;;;;;5048818;28;20386;-63
2022/10/16 10:00:22;;;;;;;18.80;9.57;;;18.60;99.90;;;;;;5048867;28;20116;-67
2022/10/16 10:02:49;;;;;;;9.93;5.65;;;18.70;99.90;;;;;;5047962;28;20029;-68
2022/10/16 10:05:26;;;;;;;6.68;4.03;;;18.80;99.90;;;;;;5047759;28;20036;-65
2022/10/16 10:08:00;;;;;;;10.00;3.35;;;18.80;99.90;;;;;;5047732;28;20485;-62
2022/10/16 10:10:31;;;;;;;9.30;4.07;;;18.90;99.90;;;;;;5048922;28;20157;-64
2022/10/16 10:12:58;;;;;;;9.45;3.00;;;19.00;99.90;;;;;;5047805;28;20043;-64
2022/10/16 10:15:26;;;;;;;7.15;3.10;;;19.00;99.90;;;;;;5048719;28;20041;-64
2022/10/16 10:17:57;;;;;;;4.90;2.30;;;19.10;99.90;;;;;;5046842;28;20421;-63
2022/10/16 10:20:34;;;;;;;3.95;2.00;;;19.10;99.90;;;;;;5048748;28;20032;-64
2022/10/16 10:23:18;;;;;;;5.07;1.90;;;19.20;99.90;;;;;;5047358;28;20030;-62
2022/10/16 10:25:57;;;;;;;7.78;2.03;;;19.40;99.90;;;;;;5048398;28;20417;-66
2022/10/16 10:28:25;;;;;;;3.40;1.65;;;19.50;99.90;;;;;;5048270;28;20706;-63
2022/10/16 10:31:07;;;;;;;4.40;1.55;;;19.50;99.90;;;;;;5047381;28;20043;-69
2022/10/16 10:33:44;;;;;;;2.75;1.63;;;19.50;99.90;;;;;;5047266;28;20037;-65
2022/10/16 10:36:32;;;;;;;4.72;1.80;;;19.60;99.90;;;;;;5047870;28;20020;-62
2022/10/16 10:38:57;;;;;;;3.55;1.55;;;19.60;99.90;;;;;;5047042;28;20025;-63
2022/10/16 10:41:50;;;;;;;3.03;1.20;;;19.70;99.90;;;;;;5048505;28;20037;-65
2022/10/16 10:44:34;;;;;;;2.47;1.50;;;19.80;99.90;;;;;;5046589;28;20048;-65
2022/10/16 10:47:21;;;;;;;3.00;1.38;;;20.00;99.90;;;;;;5045390;28;20114;-64
2022/10/16 10:50:14;;;;;;;2.80;1.33;;;20.70;99.90;;;;;;5047445;28;20032;-64
2022/10/16 10:52:51;;;;;;;5.30;1.55;;;21.00;99.90;;;;;;5047764;28;20040;-64
2022/10/16 10:55:38;;;;;;;5.68;1.48;;;21.10;99.90;;;;;;5048579;28;20100;-61
2022/10/16 10:58:06;;;;;;;3.50;1.50;;;21.00;99.90;;;;;;5045269;28;20048;-62
2022/10/16 11:01:01;;;;;;;5.05;1.60;;;20.80;99.90;;;;;;5048595;28;20021;-63
2022/10/16 11:03:45;;;;;;;3.60;1.30;;;20.80;99.90;;;;;;5048464;28;20017;-62
2022/10/16 11:06:33;;;;;;;8.68;2.53;;;20.80;99.90;;;;;;5047440;28;20029;-64
2022/10/16 11:09:19;;;;;;;4.18;1.48;;;20.90;99.90;;;;;;5047458;28;20067;-63
2022/10/16 11:11:52;;;;;;;4.63;1.48;;;21.10;99.90;;;;;;5046689;28;20040;-62
2022/10/16 11:14:23;;;;;;;3.08;1.38;;;21.30;99.90;;;;;;5047460;28;20037;-63
2022/10/16 11:16:57;;;;;;;3.83;1.30;;;21.50;99.90;;;;;;5051226;28;20471;-65
2022/10/16 11:19:39;;;;;;;6.32;1.30;;;21.60;99.90;;;;;;5052235;28;20074;-64
2022/10/16 11:22:43;;;;;;;10.75;1.50;;;21.60;99.90;;;;;;5051020;28;20474;-63
2022/10/16 11:25:21;;;;;;;7.72;1.60;;;21.80;99.90;;;;;;5019789;28;20049;-63
2022/10/16 11:28:11;;;;;;;3.97;1.20;;;21.60;99.90;;;;;;5050818;28;20040;-63
2022/10/16 11:31:07;;;;;;;4.80;1.20;;;21.70;99.90;;;;;;5051844;28;20021;-64
2022/10/16 11:33:37;;;;;;;2.85;1.10;;;21.80;99.90;;;;;;5051713;28;20060;-64
2022/10/16 11:36:06;;;;;;;;;;;22.00;99.90;;;;;;5050927;28;20112;-62
2022/10/16 11:38:44;;;;;;;6.50;1.20;;;21.90;99.90;;;;;;5051585;28;19913;-63
2022/10/16 11:41:22;;;;;;;5.68;1.48;;;21.70;99.90;;;;;;5050237;28;20029;-65
2022/10/16 11:44:15;;;;;;;4.15;1.23;;;21.90;99.90;;;;;;5031206;28;20091;-65
2022/10/16 11:46:48;;;;;;;2.13;1.27;;;22.10;99.90;;;;;;5031130;28;20049;-63
2022/10/16 11:49:21;;;;;;;5.00;1.30;;;22.10;99.90;;;;;;5031118;28;20642;-66
2022/10/16 11:52:13;;;;;;;1.92;1.33;;;22.10;99.90;;;;;;5031506;28;20548;-62
2022/10/16 11:54:59;;;;;;;4.18;1.33;;;22.30;99.90;;;;;;5030020;28;20067;-64
2022/10/16 11:57:29;;;;;;;4.40;1.30;;;22.60;99.90;;;;;;5041597;28;20037;-65
2022/10/16 12:00:03;;;;;;;7.05;1.35;;;22.40;99.90;;;;;;5050792;28;20416;-68
2022/10/16 12:02:41;;;;;;;5.45;1.23;;;22.40;99.90;;;;;;5050772;28;20040;-63
2022/10/16 12:05:23;;;;;;;4.53;1.48;;;22.50;99.90;;;;;;5048557;28;20049;-62
2022/10/16 12:07:55;;;;;;;9.10;1.48;;;22.70;99.90;;;;;;5050468;28;20532;-63
2022/10/16 12:10:27;;;;;;;2.75;1.05;;;22.70;99.90;;;;;;5050661;28;20029;-65
2022/10/16 12:12:53;;;;;;;5.57;1.50;;;22.80;99.90;;;;;;5050186;28;20036;-66
2022/10/16 12:15:25;;;;;;;2.47;1.20;;;22.70;99.90;;;;;;5049634;28;20037;-65
2022/10/16 12:17:52;;;;;;;3.78;1.20;;;22.50;99.90;;;;;;5050580;28;20041;-62
2022/10/16 12:20:20;;;;;;;2.45;1.17;;;22.30;99.90;;;;;;5050060;28;20021;-65
2022/10/16 12:22:58;;;;;;;3.20;1.55;;;22.20;99.90;;;;;;5050817;28;20021;-62
2022/10/16 12:25:29;;;;;;;6.72;1.33;;;22.60;99.90;;;;;;5050561;28;20563;-64
2022/10/16 12:28:00;;;;;;;1.88;1.33;;;22.80;99.90;;;;;;5049383;28;20478;-69
2022/10/16 12:30:29;;;;;;;3.55;1.35;;;22.90;99.90;;;;;;5049659;28;20064;-65
2022/10/16 12:32:57;;;;;;;4.40;1.20;;;22.70;99.90;;;;;;5047965;28;20036;-67
2022/10/16 12:35:27;;;;;;;8.30;1.50;;;22.90;99.90;;;;;;5043511;28;20060;-65
2022/10/16 12:37:54;;;;;;;1.60;1.00;;;23.30;99.90;;;;;;5048149;28;20755;-66
2022/10/16 12:40:32;;;;;;;4.38;1.52;;;23.80;99.90;;;;;;5043408;28;20037;-65
2022/10/16 12:42:58;;;;;;;4.50;1.17;;;23.80;99.90;;;;;;5042357;28;20061;-69
2022/10/16 12:45:28;;;;;;;11.63;1.42;;;23.90;99.90;;;;;;5047549;28;20037;-62
2022/10/16 12:47:55;;;;;;;3.45;1.48;;;24.00;99.90;;;;;;5048385;28;20037;-65
2022/10/16 12:50:26;;;;;;;7.30;1.10;;;24.00;99.90;;;;;;5047053;28;20116;-64
2022/10/16 12:52:52;;;;;;;12.55;1.63;;;24.00;99.90;;;;;;5049752;28;20473;-64
2022/10/16 12:55:23;;;;;;;2.45;1.20;;;24.20;99.90;;;;;;5049081;28;20096;-65
2022/10/16 12:58:14;;;;;;;2.45;1.10;;;23.90;99.90;;;;;;5048800;28;20314;-65
2022/10/16 13:01:12;;;;;;;1.70;1.20;;;23.90;99.90;;;;;;5019129;28;20363;-62
2022/10/16 13:04:03;;;;;;;2.13;1.20;;;23.90;99.90;;;;;;5029875;28;20036;-64